sensor_id;sensor_type;location;lat;lon;timestamp;temperature;humidity
36652;DHT22;53334;51.976;20.144;2023-05-18T00:02:22;24.40;47.90
36652;DHT22;53334;51.976;20.144;2023-05-18T00:04:57;24.40;48.50
36652;DHT22;53334;51.976;20.144;2023-05-18T00:07:34;24.40;48.00
36652;DHT22;53334;51.976;20.144;2023-05-18T00:10:09;24.40;48.00
36652;DHT22;53334;51.976;20.144;2023-05-18T00:12:42;24.40;48.10
36652;DHT22;53334;51.976;20.144;2023-05-18T00:15:16;24.40;48.10
36652;DHT22;53334;51.976;20.144;2023-05-18T00:17:49;24.40;48.10
36652;DHT22;53334;51.976;20.144;2023-05-18T00:20:24;24.40;48.10
36652;DHT22;53334;51.976;20.144;2023-05-18T00:22:59;24.40;48.10
36652;DHT22;53334;51.976;20.144;2023-05-18T00:25:33;24.40;48.10
36652;DHT22;53334;51.976;20.144;2023-05-18T00:28:07;24.50;48.20
36652;DHT22;53334;51.976;20.144;2023-05-18T00:30:42;24.40;48.30
36652;DHT22;53334;51.976;20.144;2023-05-18T00:33:15;24.40;48.50
36652;DHT22;53334;51.976;20.144;2023-05-18T00:35:49;24.40;48.60
36652;DHT22;53334;51.976;20.144;2023-05-18T00:38:23;24.40;48.70
36652;DHT22;53334;51.976;20.144;2023-05-18T00:40:57;24.40;48.70
36652;DHT22;53334;51.976;20.144;2023-05-18T00:43:30;24.40;48.80
36652;DHT22;53334;51.976;20.144;2023-05-18T00:46:04;24.50;48.80
36652;DHT22;53334;51.976;20.144;2023-05-18T00:48:37;24.40;49.00
36652;DHT22;53334;51.976;20.144;2023-05-18T00:51:11;24.40;48.90
36652;DHT22;53334;51.976;20.144;2023-05-18T00:53:46;24.40;48.90
36652;DHT22;53334;51.976;20.144;2023-05-18T00:56:19;24.50;49.10
36652;DHT22;53334;51.976;20.144;2023-05-18T00:58:55;24.50;49.20
36652;DHT22;53334;51.976;20.144;2023-05-18T01:01:30;24.40;49.10
36652;DHT22;53334;51.976;20.144;2023-05-18T01:04:06;24.50;49.20
36652;DHT22;53334;51.976;20.144;2023-05-18T01:06:41;24.40;49.20
36652;DHT22;53334;51.976;20.144;2023-05-18T01:09:18;24.40;49.20
36652;DHT22;53334;51.976;20.144;2023-05-18T01:11:59;24.50;49.40
36652;DHT22;53334;51.976;20.144;2023-05-18T01:14:41;24.50;49.40
36652;DHT22;53334;51.976;20.144;2023-05-18T01:17:24;24.50;49.30
36652;DHT22;53334;51.976;20.144;2023-05-18T01:20:18;24.50;49.40
36652;DHT22;53334;51.976;20.144;2023-05-18T01:26:30;24.50;49.60
36652;DHT22;53334;51.976;20.144;2023-05-18T01:29:09;24.40;49.40
36652;DHT22;53334;51.976;20.144;2023-05-18T01:31:44;24.40;49.60
36652;DHT22;53334;51.976;20.144;2023-05-18T01:34:18;24.40;49.40
36652;DHT22;53334;51.976;20.144;2023-05-18T01:36:51;24.40;49.50
36652;DHT22;53334;51.976;20.144;2023-05-18T01:39:25;24.40;49.50
36652;DHT22;53334;51.976;20.144;2023-05-18T01:42:02;24.40;49.60
36652;DHT22;53334;51.976;20.144;2023-05-18T01:44:40;24.50;49.70
36652;DHT22;53334;51.976;20.144;2023-05-18T01:47:16;24.40;49.80
36652;DHT22;53334;51.976;20.144;2023-05-18T01:49:55;24.40;49.80
36652;DHT22;53334;51.976;20.144;2023-05-18T01:52:36;24.50;50.00
36652;DHT22;53334;51.976;20.144;2023-05-18T01:55:10;24.50;50.00
36652;DHT22;53334;51.976;20.144;2023-05-18T01:57:48;24.40;49.80
36652;DHT22;53334;51.976;20.144;2023-05-18T02:00:22;24.50;50.00
36652;DHT22;53334;51.976;20.144;2023-05-18T02:02:55;24.50;50.00
36652;DHT22;53334;51.976;20.144;2023-05-18T02:05:29;24.40;49.90
36652;DHT22;53334;51.976;20.144;2023-05-18T02:08:04;24.50;49.90
36652;DHT22;53334;51.976;20.144;2023-05-18T02:10:37;24.50;50.00
36652;DHT22;53334;51.976;20.144;2023-05-18T02:13:13;24.40;50.00
36652;DHT22;53334;51.976;20.144;2023-05-18T02:15:47;24.50;50.20
36652;DHT22;53334;51.976;20.144;2023-05-18T02:18:20;24.50;50.20
36652;DHT22;53334;51.976;20.144;2023-05-18T02:20:57;24.50;50.10
36652;DHT22;53334;51.976;20.144;2023-05-18T02:23:31;24.50;50.20
36652;DHT22;53334;51.976;20.144;2023-05-18T02:26:05;24.50;50.20
36652;DHT22;53334;51.976;20.144;2023-05-18T02:28:39;24.50;50.10
36652;DHT22;53334;51.976;20.144;2023-05-18T02:31:13;24.50;50.60
36652;DHT22;53334;51.976;20.144;2023-05-18T02:33:46;24.50;50.20
36652;DHT22;53334;51.976;20.144;2023-05-18T02:36:20;24.50;50.30
36652;DHT22;53334;51.976;20.144;2023-05-18T02:38:53;24.50;50.30
36652;DHT22;53334;51.976;20.144;2023-05-18T02:41:28;24.50;50.30
36652;DHT22;53334;51.976;20.144;2023-05-18T02:44:03;24.50;50.30
36652;DHT22;53334;51.976;20.144;2023-05-18T02:46:36;24.50;50.30
36652;DHT22;53334;51.976;20.144;2023-05-18T02:49:10;24.50;50.30
36652;DHT22;53334;51.976;20.144;2023-05-18T02:51:44;24.50;50.30
36652;DHT22;53334;51.976;20.144;2023-05-18T02:54:18;24.50;50.20
36652;DHT22;53334;51.976;20.144;2023-05-18T02:56:52;24.50;50.30
36652;DHT22;53334;51.976;20.144;2023-05-18T02:59:38;24.50;50.30
36652;DHT22;53334;51.976;20.144;2023-05-18T03:02:12;24.50;50.20
36652;DHT22;53334;51.976;20.144;2023-05-18T03:04:47;24.40;50.20
36652;DHT22;53334;51.976;20.144;2023-05-18T03:07:25;24.50;50.20
36652;DHT22;53334;51.976;20.144;2023-05-18T03:10:01;24.50;50.20
36652;DHT22;53334;51.976;20.144;2023-05-18T03:12:37;24.50;50.30
36652;DHT22;53334;51.976;20.144;2023-05-18T03:15:12;24.50;50.30
36652;DHT22;53334;51.976;20.144;2023-05-18T03:17:47;24.50;50.30
36652;DHT22;53334;51.976;20.144;2023-05-18T03:20:21;24.40;50.30
36652;DHT22;53334;51.976;20.144;2023-05-18T03:22:54;24.50;50.40
36652;DHT22;53334;51.976;20.144;2023-05-18T03:25:28;24.40;50.90
36652;DHT22;53334;51.976;20.144;2023-05-18T03:28:05;24.40;50.30
36652;DHT22;53334;51.976;20.144;2023-05-18T03:30:41;24.40;50.30
36652;DHT22;53334;51.976;20.144;2023-05-18T03:33:14;24.40;50.40
36652;DHT22;53334;51.976;20.144;2023-05-18T03:35:48;24.50;50.30
36652;DHT22;53334;51.976;20.144;2023-05-18T03:38:23;24.50;50.40
36652;DHT22;53334;51.976;20.144;2023-05-18T03:41:03;24.40;50.30
36652;DHT22;53334;51.976;20.144;2023-05-18T03:43:37;24.40;50.30
36652;DHT22;53334;51.976;20.144;2023-05-18T03:46:12;24.40;50.40
36652;DHT22;53334;51.976;20.144;2023-05-18T03:48:46;24.40;50.30
36652;DHT22;53334;51.976;20.144;2023-05-18T03:51:24;24.40;50.20
36652;DHT22;53334;51.976;20.144;2023-05-18T03:54:00;24.40;50.30
36652;DHT22;53334;51.976;20.144;2023-05-18T03:56:33;24.50;50.30
36652;DHT22;53334;51.976;20.144;2023-05-18T03:59:06;24.40;50.20
36652;DHT22;53334;51.976;20.144;2023-05-18T04:01:41;24.50;50.20
36652;DHT22;53334;51.976;20.144;2023-05-18T04:04:15;24.40;50.20
36652;DHT22;53334;51.976;20.144;2023-05-18T04:06:54;24.40;50.30
36652;DHT22;53334;51.976;20.144;2023-05-18T04:09:28;24.50;50.30
36652;DHT22;53334;51.976;20.144;2023-05-18T04:12:01;24.40;50.30
36652;DHT22;53334;51.976;20.144;2023-05-18T04:14:36;24.40;50.30
36652;DHT22;53334;51.976;20.144;2023-05-18T04:17:11;24.40;50.20
36652;DHT22;53334;51.976;20.144;2023-05-18T04:19:44;24.40;50.60
36652;DHT22;53334;51.976;20.144;2023-05-18T04:22:17;24.40;50.60
36652;DHT22;53334;51.976;20.144;2023-05-18T04:24:51;24.40;50.50
36652;DHT22;53334;51.976;20.144;2023-05-18T04:27:26;24.50;50.60
36652;DHT22;53334;51.976;20.144;2023-05-18T04:30:00;24.50;50.90
36652;DHT22;53334;51.976;20.144;2023-05-18T04:32:36;24.40;51.20
36652;DHT22;53334;51.976;20.144;2023-05-18T04:35:10;24.50;51.90
36652;DHT22;53334;51.976;20.144;2023-05-18T04:37:44;24.50;52.00
36652;DHT22;53334;51.976;20.144;2023-05-18T04:40:22;24.50;52.00
36652;DHT22;53334;51.976;20.144;2023-05-18T04:42:56;24.50;52.50
36652;DHT22;53334;51.976;20.144;2023-05-18T04:45:34;24.50;52.50
36652;DHT22;53334;51.976;20.144;2023-05-18T04:48:08;24.50;52.50
36652;DHT22;53334;51.976;20.144;2023-05-18T04:50:42;24.50;52.00
36652;DHT22;53334;51.976;20.144;2023-05-18T04:53:16;24.50;52.00
36652;DHT22;53334;51.976;20.144;2023-05-18T04:55:50;24.50;52.00
36652;DHT22;53334;51.976;20.144;2023-05-18T04:58:24;24.50;52.00
36652;DHT22;53334;51.976;20.144;2023-05-18T05:01:01;24.50;52.20
36652;DHT22;53334;51.976;20.144;2023-05-18T05:03:36;24.50;52.30
36652;DHT22;53334;51.976;20.144;2023-05-18T05:06:10;24.50;52.20
36652;DHT22;53334;51.976;20.144;2023-05-18T05:08:43;24.60;52.30
36652;DHT22;53334;51.976;20.144;2023-05-18T05:11:16;24.50;52.50
36652;DHT22;53334;51.976;20.144;2023-05-18T05:13:51;24.50;52.60
36652;DHT22;53334;51.976;20.144;2023-05-18T05:16:25;24.50;53.00
36652;DHT22;53334;51.976;20.144;2023-05-18T05:19:00;24.50;52.90
36652;DHT22;53334;51.976;20.144;2023-05-18T05:21:34;24.50;53.00
36652;DHT22;53334;51.976;20.144;2023-05-18T05:24:08;24.60;53.00
36652;DHT22;53334;51.976;20.144;2023-05-18T05:26:41;24.60;52.90
36652;DHT22;53334;51.976;20.144;2023-05-18T05:29:15;24.60;52.80
36652;DHT22;53334;51.976;20.144;2023-05-18T05:31:48;24.60;52.80
36652;DHT22;53334;51.976;20.144;2023-05-18T05:34:23;24.60;52.70
36652;DHT22;53334;51.976;20.144;2023-05-18T05:36:57;24.60;52.80
36652;DHT22;53334;51.976;20.144;2023-05-18T05:39:30;24.60;52.70
36652;DHT22;53334;51.976;20.144;2023-05-18T05:42:05;24.60;52.60
36652;DHT22;53334;51.976;20.144;2023-05-18T05:44:39;24.60;52.50
36652;DHT22;53334;51.976;20.144;2023-05-18T05:47:13;24.60;52.40
36652;DHT22;53334;51.976;20.144;2023-05-18T05:49:48;24.60;52.30
36652;DHT22;53334;51.976;20.144;2023-05-18T05:52:21;24.60;52.10
36652;DHT22;53334;51.976;20.144;2023-05-18T05:54:55;24.60;51.50
36652;DHT22;53334;51.976;20.144;2023-05-18T05:57:29;24.60;49.20
36652;DHT22;53334;51.976;20.144;2023-05-18T06:00:04;24.50;48.60
36652;DHT22;53334;51.976;20.144;2023-05-18T06:02:51;24.50;47.00
36652;DHT22;53334;51.976;20.144;2023-05-18T06:05:33;24.50;46.60
36652;DHT22;53334;51.976;20.144;2023-05-18T06:08:09;24.50;46.40
36652;DHT22;53334;51.976;20.144;2023-05-18T06:10:43;24.50;46.20
36652;DHT22;53334;51.976;20.144;2023-05-18T06:13:16;24.40;46.10
36652;DHT22;53334;51.976;20.144;2023-05-18T06:15:55;24.50;46.00
36652;DHT22;53334;51.976;20.144;2023-05-18T06:18:29;24.40;46.20
36652;DHT22;53334;51.976;20.144;2023-05-18T06:21:08;24.50;46.20
36652;DHT22;53334;51.976;20.144;2023-05-18T06:23:42;24.50;46.30
36652;DHT22;53334;51.976;20.144;2023-05-18T06:26:45;24.50;46.20
36652;DHT22;53334;51.976;20.144;2023-05-18T06:29:38;24.50;46.20
36652;DHT22;53334;51.976;20.144;2023-05-18T06:32:30;24.50;46.30
36652;DHT22;53334;51.976;20.144;2023-05-18T06:35:05;24.50;46.50
36652;DHT22;53334;51.976;20.144;2023-05-18T06:37:40;24.50;46.80
36652;DHT22;53334;51.976;20.144;2023-05-18T06:40:14;24.50;47.00
36652;DHT22;53334;51.976;20.144;2023-05-18T06:42:48;24.50;47.20
36652;DHT22;53334;51.976;20.144;2023-05-18T06:45:45;24.50;47.40
36652;DHT22;53334;51.976;20.144;2023-05-18T06:48:37;24.60;47.50
36652;DHT22;53334;51.976;20.144;2023-05-18T06:51:11;24.60;48.00
36652;DHT22;53334;51.976;20.144;2023-05-18T06:53:45;24.60;47.40
36652;DHT22;53334;51.976;20.144;2023-05-18T06:56:19;24.60;47.30
36652;DHT22;53334;51.976;20.144;2023-05-18T06:58:52;24.60;47.20
36652;DHT22;53334;51.976;20.144;2023-05-18T07:01:26;24.60;47.10
36652;DHT22;53334;51.976;20.144;2023-05-18T07:04:03;24.60;47.00
36652;DHT22;53334;51.976;20.144;2023-05-18T07:06:36;24.60;47.00
36652;DHT22;53334;51.976;20.144;2023-05-18T07:09:11;24.60;46.90
36652;DHT22;53334;51.976;20.144;2023-05-18T07:11:44;24.60;47.10
36652;DHT22;53334;51.976;20.144;2023-05-18T07:14:18;24.60;47.30
36652;DHT22;53334;51.976;20.144;2023-05-18T07:16:51;24.60;47.30
36652;DHT22;53334;51.976;20.144;2023-05-18T07:19:24;24.60;47.40
36652;DHT22;53334;51.976;20.144;2023-05-18T07:21:58;24.60;47.70
36652;DHT22;53334;51.976;20.144;2023-05-18T07:24:32;24.60;47.90
36652;DHT22;53334;51.976;20.144;2023-05-18T07:27:06;24.70;48.10
36652;DHT22;53334;51.976;20.144;2023-05-18T07:29:39;24.70;48.10
36652;DHT22;53334;51.976;20.144;2023-05-18T07:32:12;24.70;48.20
36652;DHT22;53334;51.976;20.144;2023-05-18T07:34:46;24.70;48.30
36652;DHT22;53334;51.976;20.144;2023-05-18T07:37:19;24.70;48.40
36652;DHT22;53334;51.976;20.144;2023-05-18T07:39:54;24.70;48.40
36652;DHT22;53334;51.976;20.144;2023-05-18T07:42:27;24.70;48.50
36652;DHT22;53334;51.976;20.144;2023-05-18T07:45:01;24.70;48.40
36652;DHT22;53334;51.976;20.144;2023-05-18T07:47:34;24.70;48.40
36652;DHT22;53334;51.976;20.144;2023-05-18T07:50:09;24.70;48.20
36652;DHT22;53334;51.976;20.144;2023-05-18T07:52:42;24.70;48.20
36652;DHT22;53334;51.976;20.144;2023-05-18T07:55:17;24.80;48.40
36652;DHT22;53334;51.976;20.144;2023-05-18T07:57:50;24.80;48.20
36652;DHT22;53334;51.976;20.144;2023-05-18T08:00:24;24.80;48.60
36652;DHT22;53334;51.976;20.144;2023-05-18T08:02:57;24.80;47.80
36652;DHT22;53334;51.976;20.144;2023-05-18T08:05:32;24.80;47.80
36652;DHT22;53334;51.976;20.144;2023-05-18T08:08:05;24.80;48.10
36652;DHT22;53334;51.976;20.144;2023-05-18T08:10:40;24.80;48.40
36652;DHT22;53334;51.976;20.144;2023-05-18T08:13:13;24.80;48.30
36652;DHT22;53334;51.976;20.144;2023-05-18T08:15:47;24.80;48.10
36652;DHT22;53334;51.976;20.144;2023-05-18T08:18:40;24.80;48.10
36652;DHT22;53334;51.976;20.144;2023-05-18T08:21:13;24.80;48.00
36652;DHT22;53334;51.976;20.144;2023-05-18T08:23:47;24.80;47.70
36652;DHT22;53334;51.976;20.144;2023-05-18T08:29:19;24.80;47.30
36652;DHT22;53334;51.976;20.144;2023-05-18T08:31:53;24.80;47.00
36652;DHT22;53334;51.976;20.144;2023-05-18T08:34:26;24.80;46.80
36652;DHT22;53334;51.976;20.144;2023-05-18T08:37:01;24.80;44.30
36652;DHT22;53334;51.976;20.144;2023-05-18T08:39:34;24.80;40.90
36652;DHT22;53334;51.976;20.144;2023-05-18T08:42:17;24.70;40.90
36652;DHT22;53334;51.976;20.144;2023-05-18T08:45:08;24.70;41.10
36652;DHT22;53334;51.976;20.144;2023-05-18T08:47:43;24.60;40.50
36652;DHT22;53334;51.976;20.144;2023-05-18T08:50:19;24.60;40.80
36652;DHT22;53334;51.976;20.144;2023-05-18T08:52:59;24.60;40.40
36652;DHT22;53334;51.976;20.144;2023-05-18T08:55:32;24.60;40.60
36652;DHT22;53334;51.976;20.144;2023-05-18T08:58:13;24.60;40.50
36652;DHT22;53334;51.976;20.144;2023-05-18T09:00:49;24.60;41.00
36652;DHT22;53334;51.976;20.144;2023-05-18T09:03:25;24.60;41.10
36652;DHT22;53334;51.976;20.144;2023-05-18T09:05:59;24.60;41.20
36652;DHT22;53334;51.976;20.144;2023-05-18T09:08:34;24.60;41.70
36652;DHT22;53334;51.976;20.144;2023-05-18T09:11:08;24.70;42.10
36652;DHT22;53334;51.976;20.144;2023-05-18T09:13:43;24.70;42.50
36652;DHT22;53334;51.976;20.144;2023-05-18T09:16:17;24.70;42.70
36652;DHT22;53334;51.976;20.144;2023-05-18T09:18:50;24.70;42.30
36652;DHT22;53334;51.976;20.144;2023-05-18T09:21:24;24.70;42.40
36652;DHT22;53334;51.976;20.144;2023-05-18T09:23:58;24.70;42.40
36652;DHT22;53334;51.976;20.144;2023-05-18T09:26:31;24.80;42.50
36652;DHT22;53334;51.976;20.144;2023-05-18T09:29:16;24.80;42.50
36652;DHT22;53334;51.976;20.144;2023-05-18T09:31:49;24.80;42.40
36652;DHT22;53334;51.976;20.144;2023-05-18T09:34:23;24.80;42.40
36652;DHT22;53334;51.976;20.144;2023-05-18T09:36:56;24.80;42.50
36652;DHT22;53334;51.976;20.144;2023-05-18T09:39:30;24.80;42.40
36652;DHT22;53334;51.976;20.144;2023-05-18T09:42:04;24.80;42.30
36652;DHT22;53334;51.976;20.144;2023-05-18T09:44:38;24.80;42.20
36652;DHT22;53334;51.976;20.144;2023-05-18T09:47:11;24.80;42.10
36652;DHT22;53334;51.976;20.144;2023-05-18T09:49:45;24.80;42.10
36652;DHT22;53334;51.976;20.144;2023-05-18T09:52:19;24.80;42.20
36652;DHT22;53334;51.976;20.144;2023-05-18T09:54:57;24.80;42.10
36652;DHT22;53334;51.976;20.144;2023-05-18T09:57:31;24.90;42.00
36652;DHT22;53334;51.976;20.144;2023-05-18T10:00:14;24.90;42.00
36652;DHT22;53334;51.976;20.144;2023-05-18T10:02:48;24.90;42.10
36652;DHT22;53334;51.976;20.144;2023-05-18T10:05:25;24.80;41.90
36652;DHT22;53334;51.976;20.144;2023-05-18T10:07:59;24.90;41.90
36652;DHT22;53334;51.976;20.144;2023-05-18T10:10:37;24.90;41.90
36652;DHT22;53334;51.976;20.144;2023-05-18T10:13:15;24.80;41.80
36652;DHT22;53334;51.976;20.144;2023-05-18T10:15:53;24.90;41.90
36652;DHT22;53334;51.976;20.144;2023-05-18T10:18:28;24.90;42.00
36652;DHT22;53334;51.976;20.144;2023-05-18T10:21:03;24.90;42.00
36652;DHT22;53334;51.976;20.144;2023-05-18T10:23:39;24.90;41.90
36652;DHT22;53334;51.976;20.144;2023-05-18T10:26:14;24.90;41.80
36652;DHT22;53334;51.976;20.144;2023-05-18T10:28:51;25.00;41.90
36652;DHT22;53334;51.976;20.144;2023-05-18T10:31:26;24.90;41.80
36652;DHT22;53334;51.976;20.144;2023-05-18T10:34:02;25.00;41.70
36652;DHT22;53334;51.976;20.144;2023-05-18T10:36:36;25.00;41.70
36652;DHT22;53334;51.976;20.144;2023-05-18T10:39:10;24.90;41.60
36652;DHT22;53334;51.976;20.144;2023-05-18T10:41:44;25.00;41.60
36652;DHT22;53334;51.976;20.144;2023-05-18T10:44:18;25.00;41.80
36652;DHT22;53334;51.976;20.144;2023-05-18T10:46:54;25.00;41.60
36652;DHT22;53334;51.976;20.144;2023-05-18T10:49:29;25.00;41.50
36652;DHT22;53334;51.976;20.144;2023-05-18T10:52:03;25.00;41.90
36652;DHT22;53334;51.976;20.144;2023-05-18T10:54:37;25.00;42.70
36652;DHT22;53334;51.976;20.144;2023-05-18T10:57:15;25.00;43.30
36652;DHT22;53334;51.976;20.144;2023-05-18T10:59:48;25.00;44.30
36652;DHT22;53334;51.976;20.144;2023-05-18T11:02:23;25.00;45.30
36652;DHT22;53334;51.976;20.144;2023-05-18T11:04:57;25.00;46.00
36652;DHT22;53334;51.976;20.144;2023-05-18T11:07:31;25.00;46.40
36652;DHT22;53334;51.976;20.144;2023-05-18T11:10:08;25.00;46.70
36652;DHT22;53334;51.976;20.144;2023-05-18T11:12:42;25.00;46.80
36652;DHT22;53334;51.976;20.144;2023-05-18T11:15:16;25.00;47.20
36652;DHT22;53334;51.976;20.144;2023-05-18T11:18:03;25.10;47.60
36652;DHT22;53334;51.976;20.144;2023-05-18T11:20:44;25.00;47.70
36652;DHT22;53334;51.976;20.144;2023-05-18T11:23:18;25.00;47.90
36652;DHT22;53334;51.976;20.144;2023-05-18T11:25:51;25.10;48.20
36652;DHT22;53334;51.976;20.144;2023-05-18T11:28:25;25.10;48.30
36652;DHT22;53334;51.976;20.144;2023-05-18T11:30:59;25.10;48.50
36652;DHT22;53334;51.976;20.144;2023-05-18T11:33:34;25.10;48.50
36652;DHT22;53334;51.976;20.144;2023-05-18T11:36:10;25.10;48.40
36652;DHT22;53334;51.976;20.144;2023-05-18T11:38:46;25.10;47.80
36652;DHT22;53334;51.976;20.144;2023-05-18T11:41:28;25.10;47.20
36652;DHT22;53334;51.976;20.144;2023-05-18T11:44:15;25.10;46.60
36652;DHT22;53334;51.976;20.144;2023-05-18T11:46:53;25.10;46.30
36652;DHT22;53334;51.976;20.144;2023-05-18T11:49:29;25.20;45.80
36652;DHT22;53334;51.976;20.144;2023-05-18T11:52:05;25.20;45.50
36652;DHT22;53334;51.976;20.144;2023-05-18T11:54:42;25.20;45.00
36652;DHT22;53334;51.976;20.144;2023-05-18T11:57:16;25.20;45.30
36652;DHT22;53334;51.976;20.144;2023-05-18T11:59:54;25.20;44.30
36652;DHT22;53334;51.976;20.144;2023-05-18T12:02:30;25.20;43.90
36652;DHT22;53334;51.976;20.144;2023-05-18T12:05:08;25.20;43.60
36652;DHT22;53334;51.976;20.144;2023-05-18T12:07:42;25.20;43.20
36652;DHT22;53334;51.976;20.144;2023-05-18T12:10:16;25.20;43.20
36652;DHT22;53334;51.976;20.144;2023-05-18T12:12:51;25.20;43.10
36652;DHT22;53334;51.976;20.144;2023-05-18T12:15:25;25.10;42.90
36652;DHT22;53334;51.976;20.144;2023-05-18T12:17:59;25.20;42.90
36652;DHT22;53334;51.976;20.144;2023-05-18T12:20:34;25.20;42.80
36652;DHT22;53334;51.976;20.144;2023-05-18T12:23:10;25.20;43.50
36652;DHT22;53334;51.976;20.144;2023-05-18T12:25:44;25.20;43.00
36652;DHT22;53334;51.976;20.144;2023-05-18T12:28:17;25.10;42.90
36652;DHT22;53334;51.976;20.144;2023-05-18T12:30:54;25.20;43.10
36652;DHT22;53334;51.976;20.144;2023-05-18T12:33:27;25.10;43.30
36652;DHT22;53334;51.976;20.144;2023-05-18T12:36:02;25.10;43.30
36652;DHT22;53334;51.976;20.144;2023-05-18T12:38:35;25.10;43.30
36652;DHT22;53334;51.976;20.144;2023-05-18T12:41:09;25.10;43.10
36652;DHT22;53334;51.976;20.144;2023-05-18T12:43:42;25.10;43.10
36652;DHT22;53334;51.976;20.144;2023-05-18T12:46:15;25.10;43.10
36652;DHT22;53334;51.976;20.144;2023-05-18T12:48:58;25.10;43.10
36652;DHT22;53334;51.976;20.144;2023-05-18T12:51:34;25.00;43.50
36652;DHT22;53334;51.976;20.144;2023-05-18T12:54:08;25.00;43.00
36652;DHT22;53334;51.976;20.144;2023-05-18T12:56:54;25.00;42.70
36652;DHT22;53334;51.976;20.144;2023-05-18T12:59:33;25.00;42.90
36652;DHT22;53334;51.976;20.144;2023-05-18T13:02:06;25.00;42.50
36652;DHT22;53334;51.976;20.144;2023-05-18T13:04:40;25.00;42.50
36652;DHT22;53334;51.976;20.144;2023-05-18T13:07:14;25.00;42.70
36652;DHT22;53334;51.976;20.144;2023-05-18T13:09:48;25.00;42.90
36652;DHT22;53334;51.976;20.144;2023-05-18T13:12:34;25.00;42.70
36652;DHT22;53334;51.976;20.144;2023-05-18T13:15:13;24.90;43.10
36652;DHT22;53334;51.976;20.144;2023-05-18T13:17:57;25.00;42.70
36652;DHT22;53334;51.976;20.144;2023-05-18T13:20:31;25.00;42.60
36652;DHT22;53334;51.976;20.144;2023-05-18T13:23:10;24.90;42.80
36652;DHT22;53334;51.976;20.144;2023-05-18T13:25:44;24.90;41.70
36652;DHT22;53334;51.976;20.144;2023-05-18T13:28:19;24.90;41.10
36652;DHT22;53334;51.976;20.144;2023-05-18T13:30:53;24.90;40.90
36652;DHT22;53334;51.976;20.144;2023-05-18T13:33:26;24.90;40.80
36652;DHT22;53334;51.976;20.144;2023-05-18T13:35:59;24.90;40.40
36652;DHT22;53334;51.976;20.144;2023-05-18T13:38:34;24.90;40.10
36652;DHT22;53334;51.976;20.144;2023-05-18T13:41:09;24.80;41.00
36652;DHT22;53334;51.976;20.144;2023-05-18T13:43:42;24.80;40.00
36652;DHT22;53334;51.976;20.144;2023-05-18T13:46:16;24.80;39.90
36652;DHT22;53334;51.976;20.144;2023-05-18T13:48:50;24.80;39.70
36652;DHT22;53334;51.976;20.144;2023-05-18T13:51:24;24.80;39.30
36652;DHT22;53334;51.976;20.144;2023-05-18T13:53:58;24.80;39.20
36652;DHT22;53334;51.976;20.144;2023-05-18T13:56:32;24.80;39.20
36652;DHT22;53334;51.976;20.144;2023-05-18T13:59:05;24.80;39.50
36652;DHT22;53334;51.976;20.144;2023-05-18T14:01:38;24.80;39.50
36652;DHT22;53334;51.976;20.144;2023-05-18T14:04:13;24.80;39.20
36652;DHT22;53334;51.976;20.144;2023-05-18T14:06:46;24.70;39.00
36652;DHT22;53334;51.976;20.144;2023-05-18T14:09:21;24.70;38.90
36652;DHT22;53334;51.976;20.144;2023-05-18T14:11:54;24.70;38.90
36652;DHT22;53334;51.976;20.144;2023-05-18T14:14:27;24.70;39.10
36652;DHT22;53334;51.976;20.144;2023-05-18T14:17:00;24.70;39.00
36652;DHT22;53334;51.976;20.144;2023-05-18T14:19:34;24.70;39.20
36652;DHT22;53334;51.976;20.144;2023-05-18T14:22:08;24.70;39.00
36652;DHT22;53334;51.976;20.144;2023-05-18T14:24:42;24.70;39.00
36652;DHT22;53334;51.976;20.144;2023-05-18T14:27:15;24.70;38.80
36652;DHT22;53334;51.976;20.144;2023-05-18T14:29:51;24.60;39.20
36652;DHT22;53334;51.976;20.144;2023-05-18T14:32:24;24.70;39.20
36652;DHT22;53334;51.976;20.144;2023-05-18T14:34:57;24.60;38.80
36652;DHT22;53334;51.976;20.144;2023-05-18T14:37:30;24.60;39.20
36652;DHT22;53334;51.976;20.144;2023-05-18T14:40:07;24.60;39.20
36652;DHT22;53334;51.976;20.144;2023-05-18T14:42:40;24.60;39.40
36652;DHT22;53334;51.976;20.144;2023-05-18T14:45:13;24.60;39.40
36652;DHT22;53334;51.976;20.144;2023-05-18T14:47:48;24.60;39.70
36652;DHT22;53334;51.976;20.144;2023-05-18T14:50:21;24.60;39.00
36652;DHT22;53334;51.976;20.144;2023-05-18T14:52:54;24.60;39.10
36652;DHT22;53334;51.976;20.144;2023-05-18T14:55:29;24.50;39.00
36652;DHT22;53334;51.976;20.144;2023-05-18T14:58:02;24.50;39.20
36652;DHT22;53334;51.976;20.144;2023-05-18T15:00:37;24.50;39.00
36652;DHT22;53334;51.976;20.144;2023-05-18T15:03:10;24.60;39.30
36652;DHT22;53334;51.976;20.144;2023-05-18T15:05:43;24.50;39.10
36652;DHT22;53334;51.976;20.144;2023-05-18T15:08:16;24.50;39.60
36652;DHT22;53334;51.976;20.144;2023-05-18T15:10:51;24.50;39.70
36652;DHT22;53334;51.976;20.144;2023-05-18T15:13:24;24.50;39.80
36652;DHT22;53334;51.976;20.144;2023-05-18T15:15:58;24.50;39.50
36652;DHT22;53334;51.976;20.144;2023-05-18T15:18:31;24.40;39.00
36652;DHT22;53334;51.976;20.144;2023-05-18T15:21:04;24.40;39.20
36652;DHT22;53334;51.976;20.144;2023-05-18T15:23:38;24.40;39.30
36652;DHT22;53334;51.976;20.144;2023-05-18T15:26:12;24.40;39.50
36652;DHT22;53334;51.976;20.144;2023-05-18T15:28:45;24.40;39.80
36652;DHT22;53334;51.976;20.144;2023-05-18T15:31:20;24.40;40.10
36652;DHT22;53334;51.976;20.144;2023-05-18T15:33:53;24.40;40.20
36652;DHT22;53334;51.976;20.144;2023-05-18T15:36:27;24.50;40.10
36652;DHT22;53334;51.976;20.144;2023-05-18T15:39:00;24.40;39.70
36652;DHT22;53334;51.976;20.144;2023-05-18T15:41:37;24.50;39.70
36652;DHT22;53334;51.976;20.144;2023-05-18T15:44:10;24.40;40.00
36652;DHT22;53334;51.976;20.144;2023-05-18T15:46:44;24.50;39.80
36652;DHT22;53334;51.976;20.144;2023-05-18T15:49:17;24.40;39.40
36652;DHT22;53334;51.976;20.144;2023-05-18T15:51:52;24.40;39.50
36652;DHT22;53334;51.976;20.144;2023-05-18T15:54:25;24.40;38.90
36652;DHT22;53334;51.976;20.144;2023-05-18T15:57:00;24.40;39.40
36652;DHT22;53334;51.976;20.144;2023-05-18T15:59:33;24.40;39.30
36652;DHT22;53334;51.976;20.144;2023-05-18T16:02:06;24.40;39.50
36652;DHT22;53334;51.976;20.144;2023-05-18T16:04:40;24.40;39.60
36652;DHT22;53334;51.976;20.144;2023-05-18T16:07:13;24.40;39.70
36652;DHT22;53334;51.976;20.144;2023-05-18T16:09:46;24.40;39.70
36652;DHT22;53334;51.976;20.144;2023-05-18T16:12:21;24.40;39.80